sensor_id;sensor_type;location;lat;lon;timestamp;temperature;humidity
68977;SHT31;56029;52.568;13.588;2022-10-17T00:01:45;10.82;96.86
68977;SHT31;56029;52.568;13.588;2022-10-17T00:04:11;10.82;97.16
68977;SHT31;56029;52.568;13.588;2022-10-17T00:06:37;10.88;97.21
68977;SHT31;56029;52.568;13.588;2022-10-17T00:09:03;10.92;97.34
68977;SHT31;56029;52.568;13.588;2022-10-17T00:11:28;10.93;97.20
68977;SHT31;56029;52.568;13.588;2022-10-17T00:13:55;10.99;97.04
68977;SHT31;56029;52.568;13.588;2022-10-17T00:16:38;11.02;96.91
68977;SHT31;56029;52.568;13.588;2022-10-17T00:19:05;11.03;97.04
68977;SHT31;56029;52.568;13.588;2022-10-17T00:21:31;11.03;96.99
68977;SHT31;56029;52.568;13.588;2022-10-17T00:23:59;10.99;97.07
68977;SHT31;56029;52.568;13.588;2022-10-17T00:26:25;11.02;97.25
68977;SHT31;56029;52.568;13.588;2022-10-17T00:28:52;11.02;97.51
68977;SHT31;56029;52.568;13.588;2022-10-17T00:31:19;11.06;97.42
68977;SHT31;56029;52.568;13.588;2022-10-17T00:33:44;11.06;97.38
68977;SHT31;56029;52.568;13.588;2022-10-17T00:36:13;11.10;97.52
68977;SHT31;56029;52.568;13.588;2022-10-17T00:38:41;11.13;97.49
68977;SHT31;56029;52.568;13.588;2022-10-17T00:41:08;11.13;97.31
68977;SHT31;56029;52.568;13.588;2022-10-17T00:44:55;11.16;97.20
68977;SHT31;56029;52.568;13.588;2022-10-17T00:46:52;11.17;97.15
68977;SHT31;56029;52.568;13.588;2022-10-17T00:49:18;11.16;97.02
68977;SHT31;56029;52.568;13.588;2022-10-17T00:51:56;11.20;97.04
68977;SHT31;56029;52.568;13.588;2022-10-17T00:54:31;11.20;97.10
68977;SHT31;56029;52.568;13.588;2022-10-17T00:56:58;11.20;97.07
68977;SHT31;56029;52.568;13.588;2022-10-17T00:59:24;11.22;97.06
68977;SHT31;56029;52.568;13.588;2022-10-17T01:01:55;11.22;96.96
68977;SHT31;56029;52.568;13.588;2022-10-17T01:04:24;11.22;97.27
68977;SHT31;56029;52.568;13.588;2022-10-17T01:06:49;11.24;97.00
68977;SHT31;56029;52.568;13.588;2022-10-17T01:09:15;11.30;96.89
68977;SHT31;56029;52.568;13.588;2022-10-17T01:14:46;11.28;97.16
68977;SHT31;56029;52.568;13.588;2022-10-17T01:17:31;11.24;97.44
68977;SHT31;56029;52.568;13.588;2022-10-17T01:23:26;11.26;97.93
68977;SHT31;56029;52.568;13.588;2022-10-17T01:34:45;11.04;98.08
68977;SHT31;56029;52.568;13.588;2022-10-17T01:37:19;10.99;98.27
68977;SHT31;56029;52.568;13.588;2022-10-17T01:39:51;10.91;98.59
68977;SHT31;56029;52.568;13.588;2022-10-17T01:42:23;10.92;98.73
68977;SHT31;56029;52.568;13.588;2022-10-17T01:45:00;10.88;98.67
68977;SHT31;56029;52.568;13.588;2022-10-17T01:47:30;10.89;98.52
68977;SHT31;56029;52.568;13.588;2022-10-17T01:50:11;10.92;98.49
68977;SHT31;56029;52.568;13.588;2022-10-17T01:52:48;10.89;98.84
68977;SHT31;56029;52.568;13.588;2022-10-17T01:55:17;10.86;98.61
68977;SHT31;56029;52.568;13.588;2022-10-17T01:57:50;10.83;98.54
68977;SHT31;56029;52.568;13.588;2022-10-17T02:00:20;10.79;98.44
68977;SHT31;56029;52.568;13.588;2022-10-17T02:02:48;10.72;98.27
68977;SHT31;56029;52.568;13.588;2022-10-17T02:05:16;10.68;98.38
68977;SHT31;56029;52.568;13.588;2022-10-17T02:07:43;10.62;98.40
68977;SHT31;56029;52.568;13.588;2022-10-17T02:10:15;10.56;98.81
68977;SHT31;56029;52.568;13.588;2022-10-17T02:17:51;10.48;98.75
68977;SHT31;56029;52.568;13.588;2022-10-17T02:20:25;10.45;98.66
68977;SHT31;56029;52.568;13.588;2022-10-17T02:25:38;10.38;98.70
68977;SHT31;56029;52.568;13.588;2022-10-17T02:30:53;10.33;98.61
68977;SHT31;56029;52.568;13.588;2022-10-17T02:33:34;10.30;98.60
68977;SHT31;56029;52.568;13.588;2022-10-17T02:36:09;10.31;98.84
68977;SHT31;56029;52.568;13.588;2022-10-17T02:38:37;10.33;99.24
68977;SHT31;56029;52.568;13.588;2022-10-17T02:41:04;10.38;99.40
68977;SHT31;56029;52.568;13.588;2022-10-17T02:43:33;10.41;98.87
68977;SHT31;56029;52.568;13.588;2022-10-17T02:45:59;10.46;98.79
68977;SHT31;56029;52.568;13.588;2022-10-17T02:48:33;10.51;98.86
68977;SHT31;56029;52.568;13.588;2022-10-17T02:51:06;10.58;99.16
68977;SHT31;56029;52.568;13.588;2022-10-17T02:56:24;10.69;98.81
68977;SHT31;56029;52.568;13.588;2022-10-17T02:58:53;10.71;98.79
68977;SHT31;56029;52.568;13.588;2022-10-17T03:01:20;10.66;98.83
68977;SHT31;56029;52.568;13.588;2022-10-17T03:03:46;10.71;98.77
68977;SHT31;56029;52.568;13.588;2022-10-17T03:06:11;10.71;98.64
68977;SHT31;56029;52.568;13.588;2022-10-17T03:08:37;10.72;98.71
68977;SHT31;56029;52.568;13.588;2022-10-17T03:11:02;10.73;98.84
68977;SHT31;56029;52.568;13.588;2022-10-17T03:13:29;10.79;99.05
68977;SHT31;56029;52.568;13.588;2022-10-17T03:15:55;10.73;99.30
68977;SHT31;56029;52.568;13.588;2022-10-17T03:18:20;10.72;99.08
68977;SHT31;56029;52.568;13.588;2022-10-17T03:20:46;10.73;99.26
68977;SHT31;56029;52.568;13.588;2022-10-17T03:23:11;10.68;99.58
68977;SHT31;56029;52.568;13.588;2022-10-17T03:25:37;10.68;99.17
68977;SHT31;56029;52.568;13.588;2022-10-17T03:28:02;10.65;99.33
68977;SHT31;56029;52.568;13.588;2022-10-17T03:30:30;10.68;99.51
68977;SHT31;56029;52.568;13.588;2022-10-17T03:32:59;10.73;99.39
68977;SHT31;56029;52.568;13.588;2022-10-17T03:35:25;10.76;99.39
68977;SHT31;56029;52.568;13.588;2022-10-17T03:37:51;10.75;99.48
68977;SHT31;56029;52.568;13.588;2022-10-17T03:40:17;10.76;99.43
68977;SHT31;56029;52.568;13.588;2022-10-17T03:42:43;10.82;99.75
68977;SHT31;56029;52.568;13.588;2022-10-17T03:45:08;10.88;99.73
68977;SHT31;56029;52.568;13.588;2022-10-17T03:47:34;10.93;99.99
68977;SHT31;56029;52.568;13.588;2022-10-17T03:49:59;10.99;99.99
68977;SHT31;56029;52.568;13.588;2022-10-17T03:52:25;11.09;99.99
68977;SHT31;56029;52.568;13.588;2022-10-17T03:54:50;11.06;99.99
68977;SHT31;56029;52.568;13.588;2022-10-17T03:57:17;11.06;99.99
68977;SHT31;56029;52.568;13.588;2022-10-17T03:59:43;11.03;99.99
68977;SHT31;56029;52.568;13.588;2022-10-17T04:02:09;10.96;99.99
68977;SHT31;56029;52.568;13.588;2022-10-17T04:04:34;10.96;99.99
68977;SHT31;56029;52.568;13.588;2022-10-17T04:07:00;10.96;99.99
68977;SHT31;56029;52.568;13.588;2022-10-17T04:09:25;10.96;99.99
68977;SHT31;56029;52.568;13.588;2022-10-17T04:11:51;10.95;99.99
68977;SHT31;56029;52.568;13.588;2022-10-17T04:14:16;10.96;99.99
68977;SHT31;56029;52.568;13.588;2022-10-17T04:16:42;10.91;99.99
68977;SHT31;56029;52.568;13.588;2022-10-17T04:19:11;10.92;99.99
68977;SHT31;56029;52.568;13.588;2022-10-17T04:21:37;10.95;99.99
68977;SHT31;56029;52.568;13.588;2022-10-17T04:24:03;10.97;99.99
68977;SHT31;56029;52.568;13.588;2022-10-17T04:26:28;11.04;99.99
68977;SHT31;56029;52.568;13.588;2022-10-17T04:28:54;11.09;99.99
68977;SHT31;56029;52.568;13.588;2022-10-17T04:31:20;11.09;99.99
68977;SHT31;56029;52.568;13.588;2022-10-17T04:33:46;11.16;99.99
68977;SHT31;56029;52.568;13.588;2022-10-17T04:36:15;11.17;99.99
68977;SHT31;56029;52.568;13.588;2022-10-17T04:38:41;11.16;99.99
68977;SHT31;56029;52.568;13.588;2022-10-17T04:41:10;11.20;99.99
68977;SHT31;56029;52.568;13.588;2022-10-17T04:43:37;11.22;99.99
68977;SHT31;56029;52.568;13.588;2022-10-17T04:46:06;11.20;99.99
68977;SHT31;56029;52.568;13.588;2022-10-17T04:48:32;11.24;99.99
68977;SHT31;56029;52.568;13.588;2022-10-17T04:51:00;11.24;99.99
68977;SHT31;56029;52.568;13.588;2022-10-17T04:53:26;11.28;99.99
68977;SHT31;56029;52.568;13.588;2022-10-17T04:55:53;11.33;99.99
68977;SHT31;56029;52.568;13.588;2022-10-17T04:58:19;11.33;99.99
68977;SHT31;56029;52.568;13.588;2022-10-17T05:00:45;11.31;99.99
68977;SHT31;56029;52.568;13.588;2022-10-17T05:03:11;11.33;99.99
68977;SHT31;56029;52.568;13.588;2022-10-17T05:05:37;11.35;99.99
68977;SHT31;56029;52.568;13.588;2022-10-17T05:08:07;11.33;99.99
68977;SHT31;56029;52.568;13.588;2022-10-17T05:10:43;11.31;99.99
68977;SHT31;56029;52.568;13.588;2022-10-17T05:13:10;11.33;99.99
68977;SHT31;56029;52.568;13.588;2022-10-17T05:15:36;11.34;99.99
68977;SHT31;56029;52.568;13.588;2022-10-17T05:18:03;11.35;99.99
68977;SHT31;56029;52.568;13.588;2022-10-17T05:20:29;11.38;99.99
68977;SHT31;56029;52.568;13.588;2022-10-17T05:22:57;11.40;99.99
68977;SHT31;56029;52.568;13.588;2022-10-17T05:25:23;11.38;99.99
68977;SHT31;56029;52.568;13.588;2022-10-17T05:27:49;11.38;99.99
68977;SHT31;56029;52.568;13.588;2022-10-17T05:30:14;11.38;99.99
68977;SHT31;56029;52.568;13.588;2022-10-17T05:32:43;11.37;99.99
68977;SHT31;56029;52.568;13.588;2022-10-17T05:35:09;11.38;99.99
68977;SHT31;56029;52.568;13.588;2022-10-17T05:37:34;11.38;99.99
68977;SHT31;56029;52.568;13.588;2022-10-17T05:40:03;11.38;99.99
68977;SHT31;56029;52.568;13.588;2022-10-17T05:42:29;11.37;99.99
68977;SHT31;56029;52.568;13.588;2022-10-17T05:44:54;11.37;99.99
68977;SHT31;56029;52.568;13.588;2022-10-17T05:47:20;11.38;99.99
68977;SHT31;56029;52.568;13.588;2022-10-17T05:49:45;11.37;99.99
68977;SHT31;56029;52.568;13.588;2022-10-17T05:52:11;11.41;99.99
68977;SHT31;56029;52.568;13.588;2022-10-17T05:54:36;11.38;99.99
68977;SHT31;56029;52.568;13.588;2022-10-17T05:57:02;11.44;99.99
68977;SHT31;56029;52.568;13.588;2022-10-17T05:59:28;11.44;99.99
68977;SHT31;56029;52.568;13.588;2022-10-17T06:01:53;11.48;99.99
68977;SHT31;56029;52.568;13.588;2022-10-17T06:04:19;11.57;99.99
68977;SHT31;56029;52.568;13.588;2022-10-17T06:06:45;11.60;99.99
68977;SHT31;56029;52.568;13.588;2022-10-17T06:09:11;11.70;99.99
68977;SHT31;56029;52.568;13.588;2022-10-17T06:11:37;11.71;99.99
68977;SHT31;56029;52.568;13.588;2022-10-17T06:14:03;11.75;99.99
68977;SHT31;56029;52.568;13.588;2022-10-17T06:16:28;11.82;99.99
68977;SHT31;56029;52.568;13.588;2022-10-17T06:18:54;12.01;99.99
68977;SHT31;56029;52.568;13.588;2022-10-17T06:21:22;12.06;99.99
68977;SHT31;56029;52.568;13.588;2022-10-17T06:23:48;12.09;99.99
68977;SHT31;56029;52.568;13.588;2022-10-17T06:26:14;12.11;99.99
68977;SHT31;56029;52.568;13.588;2022-10-17T06:28:39;12.13;99.99
68977;SHT31;56029;52.568;13.588;2022-10-17T06:31:10;12.25;99.99
68977;SHT31;56029;52.568;13.588;2022-10-17T06:33:36;12.28;99.99
68977;SHT31;56029;52.568;13.588;2022-10-17T06:36:03;12.33;99.99
68977;SHT31;56029;52.568;13.588;2022-10-17T06:38:30;12.44;99.99
68977;SHT31;56029;52.568;13.588;2022-10-17T06:41:05;12.46;99.99
68977;SHT31;56029;52.568;13.588;2022-10-17T06:43:36;12.54;99.99
68977;SHT31;56029;52.568;13.588;2022-10-17T06:46:03;12.61;99.99
68977;SHT31;56029;52.568;13.588;2022-10-17T06:48:28;12.67;99.99
68977;SHT31;56029;52.568;13.588;2022-10-17T06:50:58;12.77;99.99
68977;SHT31;56029;52.568;13.588;2022-10-17T06:53:26;12.87;99.99
68977;SHT31;56029;52.568;13.588;2022-10-17T06:55:52;12.94;99.99
68977;SHT31;56029;52.568;13.588;2022-10-17T06:58:20;13.05;99.99
68977;SHT31;56029;52.568;13.588;2022-10-17T07:00:46;13.15;99.99
68977;SHT31;56029;52.568;13.588;2022-10-17T07:03:12;13.20;99.99
68977;SHT31;56029;52.568;13.588;2022-10-17T07:05:37;13.30;99.99
68977;SHT31;56029;52.568;13.588;2022-10-17T07:08:06;13.35;99.99
68977;SHT31;56029;52.568;13.588;2022-10-17T07:10:31;13.45;99.99
68977;SHT31;56029;52.568;13.588;2022-10-17T07:13:03;13.55;99.99
68977;SHT31;56029;52.568;13.588;2022-10-17T07:15:28;13.67;99.99
68977;SHT31;56029;52.568;13.588;2022-10-17T07:17:54;13.73;99.99
68977;SHT31;56029;52.568;13.588;2022-10-17T07:20:19;13.81;99.99
68977;SHT31;56029;52.568;13.588;2022-10-17T07:22:45;13.88;99.99
68977;SHT31;56029;52.568;13.588;2022-10-17T07:25:10;13.93;99.99
68977;SHT31;56029;52.568;13.588;2022-10-17T07:27:36;14.04;99.99
68977;SHT31;56029;52.568;13.588;2022-10-17T07:30:02;14.14;99.99
68977;SHT31;56029;52.568;13.588;2022-10-17T07:32:28;14.22;99.99
68977;SHT31;56029;52.568;13.588;2022-10-17T07:34:53;14.31;99.99
68977;SHT31;56029;52.568;13.588;2022-10-17T07:37:19;14.32;99.99
68977;SHT31;56029;52.568;13.588;2022-10-17T07:39:44;14.35;99.99
68977;SHT31;56029;52.568;13.588;2022-10-17T07:42:10;14.46;99.99
68977;SHT31;56029;52.568;13.588;2022-10-17T07:44:35;14.49;99.66
68977;SHT31;56029;52.568;13.588;2022-10-17T07:47:01;14.54;99.53
68977;SHT31;56029;52.568;13.588;2022-10-17T07:49:26;14.58;99.52
68977;SHT31;56029;52.568;13.588;2022-10-17T07:51:52;14.68;99.25
68977;SHT31;56029;52.568;13.588;2022-10-17T07:54:17;14.75;98.81
68977;SHT31;56029;52.568;13.588;2022-10-17T07:56:43;14.92;97.95
68977;SHT31;56029;52.568;13.588;2022-10-17T07:59:17;15.00;97.56
68977;SHT31;56029;52.568;13.588;2022-10-17T08:01:43;15.02;97.44
68977;SHT31;56029;52.568;13.588;2022-10-17T08:04:09;15.11;97.29
68977;SHT31;56029;52.568;13.588;2022-10-17T08:06:34;15.20;96.89
68977;SHT31;56029;52.568;13.588;2022-10-17T08:08:59;15.27;96.77
68977;SHT31;56029;52.568;13.588;2022-10-17T08:11:26;15.31;96.77
68977;SHT31;56029;52.568;13.588;2022-10-17T08:13:51;15.34;95.96
68977;SHT31;56029;52.568;13.588;2022-10-17T08:16:17;15.41;96.00
68977;SHT31;56029;52.568;13.588;2022-10-17T08:18:43;15.51;95.89
68977;SHT31;56029;52.568;13.588;2022-10-17T08:21:10;15.66;95.27
68977;SHT31;56029;52.568;13.588;2022-10-17T08:23:37;15.78;94.47
68977;SHT31;56029;52.568;13.588;2022-10-17T08:26:05;15.91;94.22
68977;SHT31;56029;52.568;13.588;2022-10-17T08:28:34;16.00;94.26
68977;SHT31;56029;52.568;13.588;2022-10-17T08:31:05;16.14;93.39
68977;SHT31;56029;52.568;13.588;2022-10-17T08:33:31;16.21;93.24
68977;SHT31;56029;52.568;13.588;2022-10-17T08:35:59;16.31;92.91
68977;SHT31;56029;52.568;13.588;2022-10-17T08:38:25;16.33;93.01
68977;SHT31;56029;52.568;13.588;2022-10-17T08:40:51;16.49;92.10
68977;SHT31;56029;52.568;13.588;2022-10-17T08:43:30;16.47;92.62
68977;SHT31;56029;52.568;13.588;2022-10-17T08:46:01;16.47;92.70
68977;SHT31;56029;52.568;13.588;2022-10-17T08:48:30;16.56;91.99
68977;SHT31;56029;52.568;13.588;2022-10-17T08:51:17;16.70;91.58
68977;SHT31;56029;52.568;13.588;2022-10-17T08:53:51;16.82;91.09
68977;SHT31;56029;52.568;13.588;2022-10-17T08:56:20;16.94;90.64
68977;SHT31;56029;52.568;13.588;2022-10-17T08:58:46;17.05;90.24
68977;SHT31;56029;52.568;13.588;2022-10-17T09:07:19;17.30;89.08
68977;SHT31;56029;52.568;13.588;2022-10-17T09:10:29;17.42;88.91
68977;SHT31;56029;52.568;13.588;2022-10-17T09:16:01;17.63;88.74
68977;SHT31;56029;52.568;13.588;2022-10-17T09:18:44;17.67;89.06
68977;SHT31;56029;52.568;13.588;2022-10-17T09:21:22;17.91;87.64
68977;SHT31;56029;52.568;13.588;2022-10-17T09:23:54;18.00;87.16
68977;SHT31;56029;52.568;13.588;2022-10-17T09:26:21;18.09;86.48
68977;SHT31;56029;52.568;13.588;2022-10-17T09:28:52;18.14;86.77
68977;SHT31;56029;52.568;13.588;2022-10-17T09:31:22;18.24;86.32
68977;SHT31;56029;52.568;13.588;2022-10-17T09:33:50;18.31;86.47
68977;SHT31;56029;52.568;13.588;2022-10-17T09:36:23;18.39;86.11
68977;SHT31;56029;52.568;13.588;2022-10-17T09:38:53;18.42;85.84
68977;SHT31;56029;52.568;13.588;2022-10-17T09:41:26;18.48;85.63
68977;SHT31;56029;52.568;13.588;2022-10-17T09:44:06;18.56;86.00
68977;SHT31;56029;52.568;13.588;2022-10-17T09:46:37;18.63;85.01
68977;SHT31;56029;52.568;13.588;2022-10-17T09:49:16;18.82;84.84
68977;SHT31;56029;52.568;13.588;2022-10-17T09:51:42;18.97;83.22
68977;SHT31;56029;52.568;13.588;2022-10-17T09:54:22;19.02;83.87
68977;SHT31;56029;52.568;13.588;2022-10-17T09:57:05;19.17;82.74
68977;SHT31;56029;52.568;13.588;2022-10-17T09:59:35;19.20;83.39
68977;SHT31;56029;52.568;13.588;2022-10-17T10:02:20;19.20;83.82
68977;SHT31;56029;52.568;13.588;2022-10-17T10:05:05;19.36;82.33
68977;SHT31;56029;52.568;13.588;2022-10-17T10:07:37;19.42;82.54
68977;SHT31;56029;52.568;13.588;2022-10-17T10:10:06;19.50;82.59
68977;SHT31;56029;52.568;13.588;2022-10-17T10:12:35;19.65;81.93
68977;SHT31;56029;52.568;13.588;2022-10-17T10:15:32;19.92;81.31
68977;SHT31;56029;52.568;13.588;2022-10-17T10:17:58;20.09;80.64
68977;SHT31;56029;52.568;13.588;2022-10-17T10:20:29;20.10;80.51
68977;SHT31;56029;52.568;13.588;2022-10-17T10:23:14;20.19;80.00
68977;SHT31;56029;52.568;13.588;2022-10-17T10:25:54;20.37;79.53
68977;SHT31;56029;52.568;13.588;2022-10-17T10:28:23;20.44;78.57
68977;SHT31;56029;52.568;13.588;2022-10-17T10:30:51;20.43;79.35
68977;SHT31;56029;52.568;13.588;2022-10-17T10:33:22;20.44;80.07
68977;SHT31;56029;52.568;13.588;2022-10-17T10:36:04;20.55;79.24
68977;SHT31;56029;52.568;13.588;2022-10-17T10:38:32;20.54;78.60
68977;SHT31;56029;52.568;13.588;2022-10-17T10:41:05;20.60;78.53
68977;SHT31;56029;52.568;13.588;2022-10-17T10:43:46;20.63;78.64
68977;SHT31;56029;52.568;13.588;2022-10-17T10:46:18;20.65;78.97
68977;SHT31;56029;52.568;13.588;2022-10-17T10:48:53;20.81;78.16
68977;SHT31;56029;52.568;13.588;2022-10-17T10:51:29;20.87;77.45
68977;SHT31;56029;52.568;13.588;2022-10-17T10:54:09;21.02;77.57
68977;SHT31;56029;52.568;13.588;2022-10-17T10:56:44;21.10;77.07
68977;SHT31;56029;52.568;13.588;2022-10-17T10:59:16;21.27;76.18
68977;SHT31;56029;52.568;13.588;2022-10-17T11:01:49;21.22;75.65
68977;SHT31;56029;52.568;13.588;2022-10-17T11:07:08;21.25;75.84
68977;SHT31;56029;52.568;13.588;2022-10-17T11:12:17;21.35;75.63
68977;SHT31;56029;52.568;13.588;2022-10-17T11:14:52;21.49;75.18
68977;SHT31;56029;52.568;13.588;2022-10-17T11:20:01;21.66;74.75
68977;SHT31;56029;52.568;13.588;2022-10-17T11:22:33;21.77;74.33
68977;SHT31;56029;52.568;13.588;2022-10-17T11:25:35;21.80;73.63
68977;SHT31;56029;52.568;13.588;2022-10-17T11:28:03;21.90;73.36
68977;SHT31;56029;52.568;13.588;2022-10-17T11:30:41;21.90;73.65
68977;SHT31;56029;52.568;13.588;2022-10-17T11:33:14;21.98;73.79
68977;SHT31;56029;52.568;13.588;2022-10-17T11:35:44;21.95;73.66
68977;SHT31;56029;52.568;13.588;2022-10-17T11:41:05;22.06;73.20
68977;SHT31;56029;52.568;13.588;2022-10-17T11:43:41;22.09;73.31
68977;SHT31;56029;52.568;13.588;2022-10-17T11:46:17;22.24;72.24
68977;SHT31;56029;52.568;13.588;2022-10-17T11:49:08;22.21;72.40
68977;SHT31;56029;52.568;13.588;2022-10-17T11:51:44;22.26;73.94
68977;SHT31;56029;52.568;13.588;2022-10-17T11:54:24;22.32;73.72
68977;SHT31;56029;52.568;13.588;2022-10-17T11:57:09;22.35;73.79
68977;SHT31;56029;52.568;13.588;2022-10-17T12:03:05;22.36;73.68
68977;SHT31;56029;52.568;13.588;2022-10-17T12:05:29;22.42;72.14
68977;SHT31;56029;52.568;13.588;2022-10-17T12:08:13;22.49;72.55
68977;SHT31;56029;52.568;13.588;2022-10-17T12:11:09;22.57;71.29
68977;SHT31;56029;52.568;13.588;2022-10-17T12:18:45;22.69;70.52
68977;SHT31;56029;52.568;13.588;2022-10-17T12:21:11;22.70;70.68
68977;SHT31;56029;52.568;13.588;2022-10-17T12:23:36;22.73;70.97
68977;SHT31;56029;52.568;13.588;2022-10-17T12:26:05;22.74;71.35
68977;SHT31;56029;52.568;13.588;2022-10-17T12:28:45;22.77;71.49
68977;SHT31;56029;52.568;13.588;2022-10-17T12:33:57;22.83;71.02
68977;SHT31;56029;52.568;13.588;2022-10-17T12:46:55;23.01;70.58
68977;SHT31;56029;52.568;13.588;2022-10-17T12:49:46;23.01;70.72
68977;SHT31;56029;52.568;13.588;2022-10-17T12:58:02;23.01;70.53
68977;SHT31;56029;52.568;13.588;2022-10-17T13:00:43;23.06;69.92
68977;SHT31;56029;52.568;13.588;2022-10-17T13:03:17;23.20;70.09
68977;SHT31;56029;52.568;13.588;2022-10-17T13:05:52;23.18;70.42
68977;SHT31;56029;52.568;13.588;2022-10-17T13:08:22;23.14;70.91
68977;SHT31;56029;52.568;13.588;2022-10-17T13:10:50;23.18;70.46
68977;SHT31;56029;52.568;13.588;2022-10-17T13:13:20;23.18;70.81
68977;SHT31;56029;52.568;13.588;2022-10-17T13:15:51;23.10;70.36
68977;SHT31;56029;52.568;13.588;2022-10-17T13:18:25;23.08;70.16
68977;SHT31;56029;52.568;13.588;2022-10-17T13:21:04;23.03;70.16
68977;SHT31;56029;52.568;13.588;2022-10-17T13:23:35;23.03;70.10
68977;SHT31;56029;52.568;13.588;2022-10-17T13:26:15;23.00;70.16
68977;SHT31;56029;52.568;13.588;2022-10-17T13:28:42;23.01;70.14
68977;SHT31;56029;52.568;13.588;2022-10-17T13:31:34;23.11;69.70
68977;SHT31;56029;52.568;13.588;2022-10-17T13:34:03;23.10;69.88
68977;SHT31;56029;52.568;13.588;2022-10-17T13:36:30;23.04;69.85
68977;SHT31;56029;52.568;13.588;2022-10-17T13:38:58;23.03;68.26
68977;SHT31;56029;52.568;13.588;2022-10-17T13:41:27;23.11;68.08
68977;SHT31;56029;52.568;13.588;2022-10-17T13:43:55;23.15;68.40
68977;SHT31;56029;52.568;13.588;2022-10-17T13:46:29;23.15;68.42
68977;SHT31;56029;52.568;13.588;2022-10-17T13:48:56;23.17;68.05
68977;SHT31;56029;52.568;13.588;2022-10-17T13:51:24;23.15;69.21
68977;SHT31;56029;52.568;13.588;2022-10-17T13:53:50;23.21;68.10
68977;SHT31;56029;52.568;13.588;2022-10-17T13:56:26;23.32;67.69
68977;SHT31;56029;52.568;13.588;2022-10-17T13:59:05;23.24;67.97
68977;SHT31;56029;52.568;13.588;2022-10-17T14:01:32;23.31;67.53
68977;SHT31;56029;52.568;13.588;2022-10-17T14:03:58;23.22;67.88
68977;SHT31;56029;52.568;13.588;2022-10-17T14:06:25;23.21;67.41
68977;SHT31;56029;52.568;13.588;2022-10-17T14:08:58;23.15;68.07
68977;SHT31;56029;52.568;13.588;2022-10-17T14:11:29;23.12;67.93
68977;SHT31;56029;52.568;13.588;2022-10-17T14:13:56;23.21;66.98
68977;SHT31;56029;52.568;13.588;2022-10-17T14:16:24;23.15;67.00
68977;SHT31;56029;52.568;13.588;2022-10-17T14:18:51;23.08;67.45
68977;SHT31;56029;52.568;13.588;2022-10-17T14:21:19;23.01;68.31
68977;SHT31;56029;52.568;13.588;2022-10-17T14:23:46;23.01;68.26
68977;SHT31;56029;52.568;13.588;2022-10-17T14:26:16;23.00;67.33
68977;SHT31;56029;52.568;13.588;2022-10-17T14:28:45;23.00;67.54
68977;SHT31;56029;52.568;13.588;2022-10-17T14:33:43;22.99;68.74
68977;SHT31;56029;52.568;13.588;2022-10-17T14:36:09;22.96;68.47
68977;SHT31;56029;52.568;13.588;2022-10-17T14:38:35;23.00;67.92
68977;SHT31;56029;52.568;13.588;2022-10-17T14:41:21;22.99;67.51
68977;SHT31;56029;52.568;13.588;2022-10-17T14:43:52;22.93;68.03
68977;SHT31;56029;52.568;13.588;2022-10-17T14:46:19;22.87;68.66
68977;SHT31;56029;52.568;13.588;2022-10-17T14:48:44;22.77;68.69
68977;SHT31;56029;52.568;13.588;2022-10-17T14:51:17;22.76;69.22
68977;SHT31;56029;52.568;13.588;2022-10-17T14:54:01;22.62;69.70
68977;SHT31;56029;52.568;13.588;2022-10-17T14:56:42;22.51;69.60
68977;SHT31;56029;52.568;13.588;2022-10-17T14:59:13;22.36;70.35
68977;SHT31;56029;52.568;13.588;2022-10-17T15:01:41;22.28;70.41
68977;SHT31;56029;52.568;13.588;2022-10-17T15:04:07;22.18;70.80
68977;SHT31;56029;52.568;13.588;2022-10-17T15:06:35;22.12;70.96
68977;SHT31;56029;52.568;13.588;2022-10-17T15:09:01;22.09;70.77
68977;SHT31;56029;52.568;13.588;2022-10-17T15:11:27;22.00;71.13
68977;SHT31;56029;52.568;13.588;2022-10-17T15:13:52;21.94;71.67
68977;SHT31;56029;52.568;13.588;2022-10-17T15:16:23;21.88;71.86
68977;SHT31;56029;52.568;13.588;2022-10-17T15:18:50;21.81;72.13
68977;SHT31;56029;52.568;13.588;2022-10-17T15:21:18;21.73;72.11
68977;SHT31;56029;52.568;13.588;2022-10-17T15:23:45;21.67;72.60
68977;SHT31;56029;52.568;13.588;2022-10-17T15:26:22;21.61;72.84
68977;SHT31;56029;52.568;13.588;2022-10-17T15:28:49;21.57;72.96
68977;SHT31;56029;52.568;13.588;2022-10-17T15:31:18;21.51;73.94
68977;SHT31;56029;52.568;13.588;2022-10-17T15:33:44;21.43;73.59
68977;SHT31;56029;52.568;13.588;2022-10-17T15:36:27;21.42;73.78
68977;SHT31;56029;52.568;13.588;2022-10-17T15:38:56;21.33;73.89
68977;SHT31;56029;52.568;13.588;2022-10-17T15:41:24;21.26;74.52
68977;SHT31;56029;52.568;13.588;2022-10-17T15:43:50;21.20;74.48
68977;SHT31;56029;52.568;13.588;2022-10-17T15:46:24;21.12;75.16
68977;SHT31;56029;52.568;13.588;2022-10-17T15:48:51;21.03;75.45
68977;SHT31;56029;52.568;13.588;2022-10-17T15:51:17;20.96;75.42
68977;SHT31;56029;52.568;13.588;2022-10-17T15:53:43;20.88;75.46
68977;SHT31;56029;52.568;13.588;2022-10-17T15:56:22;20.81;75.99
68977;SHT31;56029;52.568;13.588;2022-10-17T15:58:48;20.72;76.19
68977;SHT31;56029;52.568;13.588;2022-10-17T16:01:25;20.71;76.31
68977;SHT31;56029;52.568;13.588;2022-10-17T16:03:52;20.63;76.80
68977;SHT31;56029;52.568;13.588;2022-10-17T16:06:18;20.55;77.00
68977;SHT31;56029;52.568;13.588;2022-10-17T16:08:45;20.44;77.39
68977;SHT31;56029;52.568;13.588;2022-10-17T16:11:35;20.33;77.86
68977;SHT31;56029;52.568;13.588;2022-10-17T16:14:04;20.27;78.72
68977;SHT31;56029;52.568;13.588;2022-10-17T16:16:29;20.20;78.23
68977;SHT31;56029;52.568;13.588;2022-10-17T16:18:55;20.13;78.34
68977;SHT31;56029;52.568;13.588;2022-10-17T16:21:27;20.06;78.67
68977;SHT31;56029;52.568;13.588;2022-10-17T16:23:53;19.97;78.88
68977;SHT31;56029;52.568;13.588;2022-10-17T16:26:19;19.92;79.19
68977;SHT31;56029;52.568;13.588;2022-10-17T16:28:45;19.83;79.47
68977;SHT31;56029;52.568;13.588;2022-10-17T16:31:21;19.75;79.88
68977;SHT31;56029;52.568;13.588;2022-10-17T16:33:48;19.68;80.35
68977;SHT31;56029;52.568;13.588;2022-10-17T16:36:14;19.58;80.73
68977;SHT31;56029;52.568;13.588;2022-10-17T16:38:40;19.52;81.01
68977;SHT31;56029;52.568;13.588;2022-10-17T16:41:27;19.45;81.25
68977;SHT31;56029;52.568;13.588;2022-10-17T16:43:54;19.36;81.73
68977;SHT31;56029;52.568;13.588;2022-10-17T16:46:21;19.30;81.94
68977;SHT31;56029;52.568;13.588;2022-10-17T16:48:47;19.21;82.05
68977;SHT31;56029;52.568;13.588;2022-10-17T16:51:14;19.17;82.40